Time;durP1;ratioP1;P1;durP2;ratioP2;P2;SDS_P1;SDS_P2;PMS_P1;PMS_P2;Temp;Humidity;BMP_temperature;BMP_pressure;BME280_temperature;BME280_humidity;BME280_pressure;Samples;Min_cycle;Max_cycle;Signal;HPM_P1;HPM_P2
2022/08/07 00:01:15;;;;;;;7.25;3.62;;;;;;;21.90;61.78;98342.50;4502451;31;20492;-79
2022/08/07 00:04:03;;;;;;;6.87;3.50;;;;;;;22.37;59.94;98342.91;4502542;31;20132;-79
2022/08/07 00:06:31;;;;;;;7.80;3.55;;;;;;;22.65;58.68;98336.06;4502553;31;20127;-79
2022/08/07 00:09:00;;;;;;;6.85;3.45;;;;;;;21.76;61.96;98342.84;4502185;31;20160;-79
2022/08/07 00:11:43;;;;;;;6.25;3.40;;;;;;;21.45;63.41;98334.06;4502478;31;20434;-79
2022/08/07 00:14:22;;;;;;;8.57;3.62;;;;;;;21.60;62.81;98338.87;4502325;31;20118;-79
2022/08/07 00:16:56;;;;;;;10.50;3.85;;;;;;;22.47;60.10;98334.09;4502125;31;20096;-79
2022/08/07 00:19:23;;;;;;;7.72;3.72;;;;;;;21.84;62.17;98332.53;4502366;31;20469;-79
2022/08/07 00:21:54;;;;;;;6.87;3.22;;;;;;;22.14;61.14;98322.09;4502429;31;20096;-79
2022/08/07 00:24:29;;;;;;;10.52;3.95;;;;;;;22.51;59.34;98335.50;4502060;31;20099;-79
2022/08/07 00:26:57;;;;;;;7.18;3.62;;;;;;;21.51;62.99;98329.13;4502265;31;20096;-79
2022/08/07 00:29:33;;;;;;;7.00;3.72;;;;;;;21.64;62.83;98335.03;4501959;31;20167;-80
2022/08/07 00:32:04;;;;;;;6.70;3.58;;;;;;;22.38;60.18;98337.53;4502089;31;20100;-80
2022/08/07 00:34:33;;;;;;;9.45;4.18;;;;;;;22.24;60.28;98335.25;4503528;31;20140;-80
2022/08/07 00:37:02;;;;;;;6.95;3.55;;;;;;;23.10;57.41;98339.13;4502806;31;20114;-78
2022/08/07 00:39:33;;;;;;;6.50;3.47;;;;;;;23.30;56.53;98350.50;4504096;31;20072;-81
2022/08/07 00:42:01;;;;;;;6.97;3.50;;;;;;;23.63;55.23;98346.63;4504216;31;20149;-81
2022/08/07 00:44:32;;;;;;;7.87;3.47;;;;;;;23.50;55.49;98346.03;4503851;31;20114;-81
2022/08/07 00:47:03;;;;;;;6.50;3.45;;;;;;;23.88;54.45;98348.66;4504245;31;20457;-81
2022/08/07 00:49:41;;;;;;;7.78;3.62;;;;;;;23.75;54.56;98344.69;4504249;31;20418;-81
2022/08/07 00:52:28;;;;;;;7.03;3.40;;;;;;;23.82;54.35;98340.50;4502804;31;20093;-81
2022/08/07 00:54:59;;;;;;;6.90;3.60;;;;;;;24.03;53.48;98335.88;4504080;31;20104;-81
2022/08/07 00:57:36;;;;;;;6.15;3.47;;;;;;;24.04;53.52;98350.72;4502778;31;20556;-81
2022/08/07 01:00:10;;;;;;;7.95;3.42;;;;;;;23.24;55.50;98341.34;4502899;31;20106;-81
2022/08/07 01:02:37;;;;;;;7.65;3.65;;;;;;;23.74;54.35;98345.66;4504070;31;20111;-81
2022/08/07 01:05:06;;;;;;;6.05;3.45;;;;;;;23.34;55.41;98343.97;4502428;31;20385;-81
2022/08/07 01:07:45;;;;;;;7.93;3.80;;;;;;;23.04;56.45;98329.97;4504182;31;20088;-81
2022/08/07 01:10:15;;;;;;;8.15;3.40;;;;;;;23.34;55.50;98338.72;4503842;31;20133;-81
2022/08/07 01:12:44;;;;;;;6.68;3.50;;;;;;;22.09;60.50;98333.94;4503740;31;20093;-81
2022/08/07 01:15:21;;;;;;;7.25;3.47;;;;;;;22.85;57.64;98329.94;4502846;31;20165;-81
2022/08/07 01:18:02;;;;;;;9.90;4.00;;;;;;;23.01;57.19;98324.16;4502937;31;20494;-81
2022/08/07 01:20:42;;;;;;;7.32;3.75;;;;;;;21.55;62.16;98327.91;4502407;31;20547;-81
2022/08/07 01:23:23;;;;;;;8.30;3.65;;;;;;;21.11;64.64;98322.84;4502896;31;20450;-81
2022/08/07 01:26:04;;;;;;;7.65;3.78;;;;;;;22.00;61.24;98335.50;4502638;31;20115;-81
2022/08/07 01:28:31;;;;;;;7.47;3.87;;;;;;;21.82;61.57;98344.97;4503891;31;20091;-80
2022/08/07 01:31:00;;;;;;;7.40;3.97;;;;;;;22.64;58.96;98337.88;4503824;31;20159;-80
2022/08/07 01:33:28;;;;;;;7.78;3.53;;;;;;;21.91;61.25;98341.56;4503434;31;20092;-80
2022/08/07 01:36:15;;;;;;;8.23;4.00;;;;;;;22.45;58.98;98335.22;4503793;31;20110;-80
2022/08/07 01:38:42;;;;;;;8.27;3.92;;;;;;;22.41;59.32;98339.87;4489486;31;20092;-80
2022/08/07 01:41:10;;;;;;;8.07;3.65;;;;;;;22.35;59.45;98350.13;4502308;31;20489;-80
2022/08/07 01:43:52;;;;;;;8.23;3.60;;;;;;;22.90;57.38;98348.78;4503375;31;20481;-80
2022/08/07 01:46:19;;;;;;;7.55;3.80;;;;;;;21.55;62.11;98355.97;4502738;31;20147;-80
2022/08/07 01:48:47;;;;;;;7.45;3.62;;;;;;;22.44;59.24;98347.53;4503608;31;20461;-80
2022/08/07 01:51:20;;;;;;;8.65;3.87;;;;;;;22.11;59.73;98348.59;4502542;31;20131;-80
2022/08/07 01:54:08;;;;;;;7.40;3.70;;;;;;;22.40;59.15;98348.75;4502220;31;20118;-80
2022/08/07 01:56:47;;;;;;;10.95;4.12;;;;;;;21.70;61.05;98340.75;4503896;31;20096;-80
2022/08/07 01:59:28;;;;;;;8.95;4.20;;;;;;;21.16;63.72;98342.50;4503368;31;20155;-80
2022/08/07 02:02:05;;;;;;;8.88;4.00;;;;;;;21.42;62.96;98348.28;4502298;31;20450;-80
2022/08/07 02:04:43;;;;;;;11.25;4.10;;;;;;;21.21;63.28;98342.94;4502436;31;20096;-80
2022/08/07 02:07:25;;;;;;;9.02;3.97;;;;;;;20.69;65.02;98331.41;4502601;31;20147;-80
2022/08/07 02:10:13;;;;;;;7.82;4.12;;;;;;;20.82;64.84;98339.13;4503454;31;20502;-80
2022/08/07 02:12:41;;;;;;;8.45;3.92;;;;;;;21.00;64.03;98337.66;4503666;31;20080;-80
2022/08/07 02:15:13;;;;;;;8.05;3.85;;;;;;;21.82;61.46;98332.66;4502195;31;20123;-80
2022/08/07 02:17:43;;;;;;;8.20;3.87;;;;;;;21.69;61.52;98336.44;4502346;31;20443;-80
2022/08/07 02:20:18;;;;;;;10.20;4.20;;;;;;;22.22;59.70;98342.44;4502510;31;20088;-80
2022/08/07 02:22:57;;;;;;;7.53;3.80;;;;;;;21.92;60.71;98343.22;4503259;31;20449;-80
2022/08/07 02:25:26;;;;;;;8.02;4.15;;;;;;;22.46;58.56;98335.06;4502201;31;20095;-80
2022/08/07 02:28:14;;;;;;;7.62;3.50;;;;;;;21.74;60.53;98331.63;4502765;31;20092;-80
2022/08/07 02:30:51;;;;;;;10.20;3.97;;;;;;;21.86;59.81;98327.97;4502110;31;20103;-80
2022/08/07 02:33:19;;;;;;;8.57;3.83;;;;;;;21.86;60.62;98335.84;4503461;31;20132;-80
2022/08/07 02:35:47;;;;;;;8.77;3.90;;;;;;;22.00;60.32;98338.13;4501980;31;20100;-80
2022/08/07 02:38:37;;;;;;;7.72;3.80;;;;;;;22.56;57.84;98334.28;4503593;31;20118;-80
2022/08/07 02:41:16;;;;;;;10.13;4.10;;;;;;;22.27;59.18;98339.41;4502367;31;20084;-80
2022/08/07 02:43:48;;;;;;;8.50;4.00;;;;;;;21.99;59.76;98339.09;4501891;31;20135;-80
2022/08/07 02:46:17;;;;;;;8.13;4.05;;;;;;;22.55;58.21;98332.63;4502279;31;20187;-80
2022/08/07 02:48:45;;;;;;;7.35;3.60;;;;;;;22.31;58.55;98330.28;4502236;31;20149;-80
2022/08/07 02:51:23;;;;;;;10.20;4.35;;;;;;;21.76;60.95;98325.28;4503042;31;20092;-80
2022/08/07 02:54:08;;;;;;;;;;;;;;;21.51;62.61;98325.69;4503725;31;20103;-80
2022/08/07 02:56:39;;;;;;;9.05;4.12;;;;;;;20.76;65.03;98321.28;4500972;31;20023;-80
2022/08/07 02:59:10;;;;;;;9.27;4.37;;;;;;;21.01;64.97;98326.19;4501650;31;20116;-80
2022/08/07 03:01:38;;;;;;;9.93;3.92;;;;;;;21.09;64.45;98329.03;4502113;31;20088;-80
2022/08/07 03:04:07;;;;;;;7.57;3.90;;;;;;;21.52;62.47;98325.56;4501672;31;20152;-80
2022/08/07 03:06:44;;;;;;;8.68;4.05;;;;;;;21.32;63.53;98321.94;4502291;31;20161;-80
2022/08/07 03:09:13;;;;;;;7.97;4.28;;;;;;;21.18;63.63;98322.22;4502191;31;20123;-80
2022/08/07 03:12:04;;;;;;;8.40;4.03;;;;;;;20.66;65.88;98325.59;4501969;31;20096;-80
2022/08/07 03:14:38;;;;;;;8.00;4.20;;;;;;;21.17;64.19;98325.81;4501980;31;20449;-80
2022/08/07 03:17:06;;;;;;;7.85;4.05;;;;;;;21.17;64.44;98317.09;4502095;31;20426;-80
2022/08/07 03:19:35;;;;;;;7.68;3.92;;;;;;;21.43;63.31;98321.06;4502673;31;20096;-80
2022/08/07 03:22:04;;;;;;;7.72;4.30;;;;;;;20.46;66.57;98324.53;4501968;31;20088;-80
2022/08/07 03:24:32;;;;;;;9.27;4.37;;;;;;;20.74;66.53;98320.56;4501758;31;20080;-80
2022/08/07 03:27:04;;;;;;;19.80;5.85;;;;;;;20.86;66.16;98327.44;4502831;31;20564;-80
2022/08/07 03:29:41;;;;;;;12.90;5.43;;;;;;;20.85;68.56;98331.03;4503109;31;20131;-80
2022/08/07 03:32:18;;;;;;;14.82;6.15;;;;;;;20.49;71.41;98334.75;4502751;31;20083;-80
2022/08/07 03:34:48;;;;;;;11.32;5.15;;;;;;;20.69;71.11;98339.28;4502818;31;20147;-80
2022/08/07 03:37:35;;;;;;;11.18;5.05;;;;;;;19.88;74.65;98339.47;4502769;31;20454;-81
2022/08/07 03:40:19;;;;;;;11.77;5.35;;;;;;;19.23;77.28;98339.97;4501537;31;20168;-81
2022/08/07 03:42:49;;;;;;;9.40;5.18;;;;;;;18.65;80.58;98320.66;4501751;31;20132;-81
2022/08/07 03:45:18;;;;;;;10.77;5.80;;;;;;;18.83;80.48;98328.97;4502603;31;20446;-81
2022/08/07 03:47:57;;;;;;;9.82;5.05;;;;;;;19.29;78.30;98334.28;4501582;31;20140;-81
2022/08/07 03:50:24;;;;;;;13.85;5.62;;;;;;;19.64;76.30;98342.16;4502727;31;20147;-81
2022/08/07 03:52:56;;;;;;;10.15;5.43;;;;;;;19.80;75.57;98337.44;4502451;31;20144;-81
2022/08/07 03:55:24;;;;;;;9.40;4.90;;;;;;;19.70;75.38;98343.50;4502535;31;20433;-81
2022/08/07 03:58:11;;;;;;;10.02;5.40;;;;;;;20.43;73.38;98346.59;4501910;31;20168;-81
2022/08/07 04:00:58;;;;;;;11.77;5.15;;;;;;;19.81;75.12;98354.81;4502511;31;20100;-81
2022/08/07 04:03:26;;;;;;;11.90;5.15;;;;;;;20.21;73.96;98351.78;4501428;31;20107;-81
2022/08/07 04:06:08;;;;;;;8.95;4.60;;;;;;;19.89;74.42;98354.25;4501529;31;20095;-81
2022/08/07 04:08:56;;;;;;;9.23;5.00;;;;;;;20.91;70.17;98361.16;4502158;31;20164;-81
2022/08/07 04:11:23;;;;;;;9.10;4.47;;;;;;;20.78;69.75;98351.66;4501267;31;20113;-81
2022/08/07 04:14:11;;;;;;;9.65;5.05;;;;;;;20.60;70.37;98354.87;4502073;31;20454;-81
2022/08/07 04:16:58;;;;;;;9.45;4.57;;;;;;;20.81;69.68;98355.81;4501532;31;20129;-81
2022/08/07 04:19:28;;;;;;;9.35;4.93;;;;;;;20.77;69.13;98364.88;4502467;31;20651;-81
2022/08/07 04:22:16;;;;;;;11.18;4.87;;;;;;;21.30;67.12;98360.59;4501017;31;20497;-81
2022/08/07 04:24:44;;;;;;;10.27;5.22;;;;;;;20.69;70.26;98367.28;4501045;31;20118;-81
2022/08/07 04:27:12;;;;;;;12.15;4.87;;;;;;;21.88;65.91;98368.91;4501313;31;20145;-81
2022/08/07 04:29:46;;;;;;;10.45;5.03;;;;;;;21.33;66.67;98370.84;4502011;31;20107;-81
2022/08/07 04:32:30;;;;;;;12.55;5.10;;;;;;;21.35;67.11;98371.53;4502473;31;20106;-81
2022/08/07 04:35:03;;;;;;;8.88;4.32;;;;;;;21.58;66.14;98367.03;4500696;31;20145;-81
2022/08/07 04:37:32;;;;;;;8.85;4.25;;;;;;;22.07;63.64;98373.47;4502299;31;20136;-81
2022/08/07 04:40:19;;;;;;;;;;;;;;;21.27;66.74;98373.16;4502526;31;20096;-81
2022/08/07 04:42:46;;;;;;;10.60;5.07;;;;;;;21.64;65.18;98384.09;4501890;31;20334;-81
2022/08/07 04:45:18;;;;;;;9.80;4.18;;;;;;;21.56;65.61;98382.09;4501973;31;20118;-81
2022/08/07 04:48:38;;;;;;;8.52;4.37;;;;;;;21.73;64.03;98387.75;4502355;31;20072;-81
2022/08/07 04:51:16;;;;;;;10.27;4.30;;;;;;;21.86;63.55;98388.38;4500591;31;20171;-81
2022/08/07 04:53:50;;;;;;;10.40;4.62;;;;;;;21.70;63.96;98391.47;4501969;31;20103;-81
2022/08/07 04:56:45;;;;;;;8.88;4.45;;;;;;;21.81;63.14;98393.22;4500525;31;20464;-81
2022/08/07 04:59:54;;;;;;;11.02;4.68;;;;;;;21.47;66.22;98398.59;4501728;31;20081;-81
2022/08/07 05:03:11;;;;;;;9.27;4.62;;;;;;;21.95;63.91;98406.00;4501960;31;20143;-81
2022/08/07 05:06:07;;;;;;;8.70;4.20;;;;;;;22.30;62.46;98405.69;4488502;31;20092;-81
2022/08/07 05:09:13;;;;;;;9.60;4.53;;;;;;;22.51;60.19;98413.53;4500711;31;20096;-81
2022/08/07 05:11:47;;;;;;;8.98;4.43;;;;;;;23.18;58.51;98412.97;4500196;31;20106;-81
2022/08/07 05:14:41;;;;;;;10.93;4.28;;;;;;;22.78;59.10;98413.81;4500598;31;20100;-81
2022/08/07 05:17:24;;;;;;;8.43;4.53;;;;;;;22.56;60.55;98414.00;4501384;31;20127;-81
2022/08/07 05:20:15;;;;;;;7.87;3.72;;;;;;;23.51;57.40;98410.94;4501900;31;20092;-81
2022/08/07 05:22:45;;;;;;;9.68;4.62;;;;;;;22.02;61.16;98411.59;4502839;31;20150;-81
2022/08/07 05:25:15;;;;;;;10.25;4.30;;;;;;;22.60;60.00;98406.66;4502425;31;20197;-81
2022/08/07 05:28:03;;;;;;;10.13;4.55;;;;;;;23.21;57.90;98407.44;4503010;31;20114;-81
2022/08/07 05:30:47;;;;;;;9.90;4.10;;;;;;;23.44;57.22;98418.53;4502836;31;20136;-81
2022/08/07 05:33:14;;;;;;;7.68;3.90;;;;;;;23.21;57.28;98414.50;4502369;31;20557;-81
2022/08/07 05:35:44;;;;;;;9.07;4.28;;;;;;;22.49;59.42;98420.75;4502575;31;20105;-81
2022/08/07 05:38:14;;;;;;;9.50;4.28;;;;;;;23.34;57.13;98418.53;4502447;31;20095;-81
2022/08/07 05:41:01;;;;;;;;;;;;;;;23.77;55.27;98421.78;4503957;31;20103;-81
2022/08/07 05:43:39;;;;;;;8.90;3.87;;;;;;;23.31;57.11;98416.19;4502939;31;20465;-81
2022/08/07 05:46:26;;;;;;;7.85;4.00;;;;;;;24.01;55.12;98418.69;4502600;31;20096;-81
2022/08/07 05:48:55;;;;;;;8.32;4.00;;;;;;;23.93;54.60;98419.41;4502636;31;20489;-81
2022/08/07 05:51:25;;;;;;;8.60;3.80;;;;;;;23.54;56.33;98426.44;4502587;31;20106;-81
2022/08/07 05:53:59;;;;;;;8.00;4.15;;;;;;;22.89;57.98;98426.06;4503370;31;20104;-81
2022/08/07 05:56:47;;;;;;;7.20;3.92;;;;;;;23.24;57.29;98420.31;4502555;31;20100;-81
2022/08/07 05:59:18;;;;;;;8.40;4.03;;;;;;;22.71;58.00;98428.44;4503164;31;20107;-81
2022/08/07 06:01:47;;;;;;;8.35;4.20;;;;;;;23.23;56.37;98426.56;4502515;31;20083;-81
2022/08/07 06:04:16;;;;;;;8.40;3.78;;;;;;;22.92;58.51;98428.41;4502408;31;20102;-81
2022/08/07 06:06:43;;;;;;;8.70;3.90;;;;;;;23.34;56.21;98422.97;4503394;31;20111;-81
2022/08/07 06:09:14;;;;;;;7.80;3.72;;;;;;;24.01;53.71;98431.87;4503754;31;20115;-81
2022/08/07 06:11:42;;;;;;;7.93;3.67;;;;;;;23.16;56.37;98429.84;4503479;31;20414;-80
2022/08/07 06:14:09;;;;;;;7.25;3.87;;;;;;;23.20;57.27;98426.00;4503178;31;20139;-80
2022/08/07 06:16:54;;;;;;;7.85;4.00;;;;;;;23.57;55.62;98428.81;4503612;31;20185;-80
2022/08/07 06:19:23;;;;;;;6.95;3.55;;;;;;;23.76;55.19;98442.00;4502364;31;20104;-80
2022/08/07 06:22:10;;;;;;;8.07;3.42;;;;;;;22.98;56.23;98432.31;4503369;31;20150;-80
2022/08/07 06:24:50;;;;;;;6.45;3.35;;;;;;;22.57;57.47;98427.97;4502467;31;20149;-80
2022/08/07 06:27:24;;;;;;;7.80;3.70;;;;;;;23.46;55.54;98434.19;4503292;31;20108;-80
2022/08/07 06:30:11;;;;;;;6.72;3.40;;;;;;;24.07;53.84;98432.16;4503491;31;20522;-80
2022/08/07 06:32:58;;;;;;;5.65;3.20;;;;;;;24.33;52.73;98442.94;4503475;31;20447;-80
2022/08/07 06:35:26;;;;;;;7.43;3.85;;;;;;;24.37;53.08;98435.59;4501771;31;20168;-80
2022/08/07 06:38:11;;;;;;;7.53;3.40;;;;;;;24.84;52.22;98440.81;4502542;31;20160;-80
2022/08/07 06:40:50;;;;;;;8.18;3.72;;;;;;;25.62;50.08;98440.22;4503354;31;20091;-80
2022/08/07 06:43:20;;;;;;;8.85;3.35;;;;;;;24.87;51.18;98444.00;4501949;31;20166;-80
2022/08/07 06:45:49;;;;;;;7.55;3.40;;;;;;;25.35;50.52;98437.66;4502227;31;20076;-80
2022/08/07 06:48:17;;;;;;;6.30;3.33;;;;;;;26.27;47.14;98439.16;4503147;31;20106;-80
2022/08/07 06:50:52;;;;;;;7.37;3.25;;;;;;;25.06;50.19;98436.00;4502276;31;20458;-80
2022/08/07 06:53:21;;;;;;;6.18;3.10;;;;;;;24.56;52.33;98432.88;4503294;31;20175;-80
2022/08/07 06:56:09;;;;;;;6.78;3.15;;;;;;;26.08;48.34;98437.53;4501958;31;20068;-80
2022/08/07 06:58:42;;;;;;;6.82;3.08;;;;;;;26.00;49.75;98429.53;4503124;31;20128;-80
2022/08/07 07:01:30;;;;;;;9.65;3.22;;;;;;;25.68;48.83;98430.87;4502010;31;20483;-80
2022/08/07 07:04:10;;;;;;;6.87;2.87;;;;;;;26.41;48.83;98431.50;4501926;31;20127;-80
2022/08/07 07:06:57;;;;;;;6.50;3.12;;;;;;;26.95;46.05;98433.91;4503134;31;20457;-80
2022/08/07 07:09:28;;;;;;;6.18;3.20;;;;;;;26.70;47.73;98430.34;4501723;31;20100;-80
2022/08/07 07:12:03;;;;;;;7.45;3.20;;;;;;;26.99;45.67;98436.06;4503156;31;20088;-80
2022/08/07 07:15:02;;;;;;;8.43;3.03;;;;;;;25.70;48.92;98422.81;4503163;31;20119;-80
2022/08/07 07:17:53;;;;;;;7.00;3.12;;;;;;;26.61;47.11;98432.09;4489340;31;20102;-80
2022/08/07 07:20:28;;;;;;;7.57;3.17;;;;;;;27.09;45.51;98433.31;4501967;31;20104;-80
2022/08/07 07:22:57;;;;;;;6.25;3.00;;;;;;;26.22;47.47;98424.56;4502106;31;20236;-80
2022/08/07 07:25:46;;;;;;;6.18;3.00;;;;;;;27.39;45.47;98430.09;4501937;31;20474;-80
2022/08/07 07:28:55;;;;;;;9.25;3.30;;;;;;;28.03;43.56;98437.47;4502440;31;20076;-80
2022/08/07 07:31:47;;;;;;;9.73;3.30;;;;;;;27.18;44.83;98429.72;4502796;31;20155;-80
2022/08/07 07:34:19;;;;;;;6.62;3.05;;;;;;;28.13;43.60;98436.28;4501858;31;20441;-80
2022/08/07 07:36:48;;;;;;;5.50;2.80;;;;;;;28.24;42.83;98437.78;4502936;31;20106;-80
2022/08/07 07:39:21;;;;;;;6.10;2.70;;;;;;;28.31;42.06;98430.84;4488933;31;20144;-80
2022/08/07 07:41:51;;;;;;;5.37;2.87;;;;;;;28.18;42.64;98433.97;4502262;31;20127;-80
2022/08/07 07:44:41;;;;;;;5.93;2.80;;;;;;;29.08;40.80;98436.41;4502509;31;20092;-80
2022/08/07 07:47:09;;;;;;;5.07;2.83;;;;;;;28.72;41.80;98426.25;4501652;31;20106;-80
2022/08/07 07:49:48;;;;;;;6.25;3.00;;;;;;;29.21;40.96;98434.03;4502845;31;20094;-80
2022/08/07 07:52:36;;;;;;;7.93;3.10;;;;;;;28.48;41.75;98428.97;4501532;31;20153;-80
2022/08/07 07:55:06;;;;;;;4.45;2.72;;;;;;;29.40;39.91;98435.41;4501511;31;20123;-80
2022/08/07 07:57:36;;;;;;;6.05;3.05;;;;;;;29.55;40.21;98433.66;4501704;31;20428;-80
2022/08/07 08:00:19;;;;;;;6.78;2.80;;;;;;;30.19;38.90;98442.16;4500995;31;20544;-80
2022/08/07 08:03:05;;;;;;;5.50;2.78;;;;;;;31.04;36.42;98446.25;4501749;31;20120;-80
2022/08/07 08:05:39;;;;;;;6.30;2.90;;;;;;;30.29;38.28;98431.25;4502339;31;20096;-80
2022/08/07 08:08:26;;;;;;;5.35;2.80;;;;;;;29.28;39.95;98439.47;4501683;31;20091;-80
2022/08/07 08:11:04;;;;;;;6.85;2.80;;;;;;;30.31;39.45;98442.56;4501573;31;20080;-80
2022/08/07 08:13:36;;;;;;;5.47;2.92;;;;;;;30.91;37.10;98433.59;4501127;31;20108;-81
2022/08/07 08:16:25;;;;;;;6.68;2.60;;;;;;;30.31;37.67;98434.59;4502537;31;20092;-80
2022/08/07 08:18:57;;;;;;;6.75;2.90;;;;;;;28.79;41.52;98442.31;4501395;31;20126;-80
2022/08/07 08:27:39;;;;;;;5.03;2.65;;;;;;;31.00;37.60;98445.00;4501800;31;20144;-80
2022/08/07 08:30:23;;;;;;;5.85;2.58;;;;;;;32.15;35.19;98437.00;4502290;31;20104;-80
2022/08/07 08:32:53;;;;;;;6.22;2.90;;;;;;;31.08;37.32;98440.38;4502305;31;20175;-81
2022/08/07 08:35:25;;;;;;;4.97;2.90;;;;;;;30.32;38.65;98435.41;4501853;31;20104;-81
2022/08/07 08:37:57;;;;;;;5.37;2.62;;;;;;;30.47;37.75;98431.75;4502299;31;20135;-80
2022/08/07 08:40:36;;;;;;;6.22;2.78;;;;;;;30.89;37.85;98440.97;4501776;31;20100;-80
2022/08/07 08:43:08;;;;;;;8.73;2.85;;;;;;;30.69;38.20;98435.34;4501018;31;20084;-80
2022/08/07 08:45:57;;;;;;;5.35;2.78;;;;;;;31.26;36.31;98434.69;4502091;31;20096;-80
2022/08/07 08:48:36;;;;;;;4.40;2.60;;;;;;;30.68;37.81;98439.03;4501741;31;20108;-80
2022/08/07 08:51:53;;;;;;;7.03;2.90;;;;;;;30.57;38.39;98431.47;4500865;31;20152;-80
2022/08/07 08:54:42;;;;;;;5.78;3.08;;;;;;;29.51;40.09;98442.19;4502603;31;20136;-80
2022/08/07 08:57:42;;;;;;;4.40;2.50;;;;;;;31.31;36.72;98434.94;4502911;31;20128;-80
2022/08/07 09:00:11;;;;;;;4.72;2.53;;;;;;;32.06;35.06;98432.81;4485217;31;20123;-80
2022/08/07 09:02:55;;;;;;;5.90;2.70;;;;;;;31.23;36.52;98432.38;4503650;31;20088;-80
2022/08/07 09:05:44;;;;;;;6.43;3.03;;;;;;;31.73;36.06;98435.16;4502881;31;20124;-80
2022/08/07 09:08:24;;;;;;;5.75;2.62;;;;;;;33.45;32.60;98445.16;4504086;31;20153;-80
2022/08/07 09:11:16;;;;;;;4.62;2.60;;;;;;;32.19;35.44;98427.56;4504059;31;20122;-80
2022/08/07 09:14:13;;;;;;;5.45;2.70;;;;;;;30.37;38.79;98419.72;4503251;31;20084;-80
2022/08/07 09:16:46;;;;;;;6.47;2.80;;;;;;;32.74;33.52;98432.06;4503671;31;20092;-80
2022/08/07 09:19:41;;;;;;;4.45;2.70;;;;;;;33.93;31.91;98429.81;4504115;31;20088;-80
2022/08/07 09:23:02;;;;;;;6.35;2.80;;;;;;;33.99;31.87;98425.47;4503055;31;20093;-80
2022/08/07 09:25:58;;;;;;;4.60;2.53;;;;;;;34.78;29.97;98425.41;4503598;31;20148;-80
2022/08/07 09:28:28;;;;;;;;;;;;;;;34.15;31.67;98418.91;4502836;31;20215;-80
2022/08/07 09:31:34;;;;;;;6.22;2.70;;;;;;;34.10;31.20;98419.50;4502383;31;19972;-80
2022/08/07 09:34:15;;;;;;;6.22;2.60;;;;;;;32.32;35.38;98413.50;4503901;31;20100;-80
2022/08/07 09:37:10;;;;;;;4.93;2.67;;;;;;;34.04;32.68;98414.16;4502369;31;20088;-80
2022/08/07 09:39:48;;;;;;;4.93;2.67;;;;;;;33.84;32.64;98414.13;4502660;31;20106;-80
2022/08/07 09:42:34;;;;;;;5.95;2.65;;;;;;;34.65;31.27;98405.84;4502805;31;20096;-80
2022/08/07 09:45:07;;;;;;;5.47;2.85;;;;;;;33.64;32.94;98404.22;4503430;31;20386;-80
2022/08/07 09:48:02;;;;;;;5.12;2.90;;;;;;;31.79;36.00;98405.06;4503585;31;20106;-80
2022/08/07 09:51:04;;;;;;;6.00;2.80;;;;;;;31.15;36.75;98396.97;4503382;31;20107;-80
2022/08/07 09:53:55;;;;;;;6.70;3.00;;;;;;;31.48;36.89;98384.06;4503502;31;20420;-80
2022/08/07 09:56:43;;;;;;;5.00;2.80;;;;;;;31.23;36.61;98389.72;4502656;31;20104;-80
2022/08/07 09:59:50;;;;;;;7.35;3.10;;;;;;;32.34;35.84;98382.12;4503080;31;20438;-80
2022/08/07 10:03:07;;;;;;;6.00;3.37;;;;;;;34.02;32.55;98392.13;4503713;31;20497;-80
2022/08/07 10:06:33;;;;;;;5.60;2.90;;;;;;;33.24;33.46;98381.91;4502740;31;20137;-80
2022/08/07 10:09:07;;;;;;;6.10;2.67;;;;;;;32.30;34.64;98387.00;4503803;31;20215;-80
2022/08/07 10:12:02;;;;;;;6.03;3.00;;;;;;;32.41;34.27;98381.12;4503598;31;20088;-80
2022/08/07 10:15:31;;;;;;;4.65;2.53;;;;;;;33.86;31.40;98374.59;4503536;31;20076;-80
2022/08/07 10:18:24;;;;;;;6.07;3.10;;;;;;;31.94;35.52;98368.47;4460449;31;20100;-80
2022/08/07 10:21:26;;;;;;;5.03;2.70;;;;;;;31.92;35.03;98378.50;4502005;31;20111;-79
2022/08/07 10:24:38;;;;;;;5.82;2.60;;;;;;;31.52;35.80;98374.66;4503367;31;20083;-79
2022/08/07 10:27:19;;;;;;;5.03;2.78;;;;;;;32.41;34.62;98377.63;4503222;31;20508;-79
2022/08/07 10:30:05;;;;;;;5.40;2.60;;;;;;;32.94;33.64;98378.72;4502390;31;20100;-79
2022/08/07 10:32:44;;;;;;;6.18;3.00;;;;;;;31.79;35.93;98373.03;4503575;31;20162;-79
2022/08/07 10:35:37;;;;;;;;;;;;;;;32.87;34.20;98374.41;4503833;31;20148;-79
2022/08/07 10:38:28;;;;;;;6.47;2.70;;;;;;;33.89;32.02;98374.22;4503630;31;20250;-79
2022/08/07 10:41:33;;;;;;;6.57;3.00;;;;;;;34.32;31.88;98365.72;4502974;31;20144;-79
2022/08/07 10:44:29;;;;;;;6.22;2.70;;;;;;;34.33;31.89;98376.22;4503249;31;20110;-80
2022/08/07 10:47:18;;;;;;;6.00;2.42;;;;;;;33.57;33.42;98360.59;4502006;31;20105;-80
2022/08/07 10:50:18;;;;;;;7.47;2.80;;;;;;;32.45;34.45;98370.87;4503158;31;20100;-80
2022/08/07 10:52:59;;;;;;;5.10;2.75;;;;;;;30.81;36.59;98361.13;4502172;31;20119;-79
2022/08/07 10:55:49;;;;;;;5.40;2.87;;;;;;;30.76;38.26;98360.88;4501678;31;20119;-78
2022/08/07 10:58:34;;;;;;;5.35;2.75;;;;;;;32.99;34.39;98354.91;4501929;31;20084;-79
2022/08/07 11:01:20;;;;;;;4.90;2.70;;;;;;;31.77;35.86;98356.41;4501439;31;20072;-80
2022/08/07 11:04:04;;;;;;;5.95;3.15;;;;;;;31.18;37.28;98357.47;4501977;31;20112;-80
2022/08/07 11:07:33;;;;;;;5.57;2.90;;;;;;;30.44;38.74;98359.41;4501935;31;20100;-80
2022/08/07 11:10:31;;;;;;;6.25;2.95;;;;;;;29.60;38.84;98351.56;4438053;32;20163;-80
2022/08/07 11:13:03;;;;;;;6.22;3.08;;;;;;;30.63;39.50;98347.37;4502038;31;20151;-80
2022/08/07 11:15:35;;;;;;;5.68;2.95;;;;;;;32.12;35.29;98349.31;4501653;31;20433;-80
2022/08/07 11:18:15;;;;;;;5.60;2.83;;;;;;;32.03;35.66;98345.97;4501091;31;20108;-80
2022/08/07 11:21:03;;;;;;;8.52;3.22;;;;;;;31.93;35.42;98346.28;4501898;31;20219;-80
2022/08/07 11:23:43;;;;;;;8.40;3.40;;;;;;;32.43;34.82;98347.06;4501638;31;20351;-80
2022/08/07 11:26:16;;;;;;;5.47;3.10;;;;;;;33.48;32.79;98343.09;4503228;31;20088;-80
2022/08/07 11:28:50;;;;;;;6.20;3.10;;;;;;;30.45;37.60;98345.09;4502102;31;20525;-80
2022/08/07 11:31:32;;;;;;;7.20;3.17;;;;;;;30.77;37.37;98336.72;4502041;31;20211;-80
2022/08/07 11:34:24;;;;;;;6.40;3.00;;;;;;;30.72;37.65;98327.62;4502950;31;20428;-80
2022/08/07 11:36:59;;;;;;;8.18;3.28;;;;;;;31.45;36.34;98333.75;4501449;31;20134;-80
2022/08/07 11:39:29;;;;;;;6.20;3.08;;;;;;;31.74;35.11;98341.59;4501961;31;20108;-80
2022/08/07 11:42:33;;;;;;;6.10;3.30;;;;;;;31.87;35.36;98335.56;4502818;31;20152;-80
2022/08/07 11:45:21;;;;;;;5.55;3.20;;;;;;;33.09;34.72;98339.31;4501100;31;20088;-78
2022/08/07 11:48:34;;;;;;;8.00;3.37;;;;;;;32.97;34.12;98334.75;4502007;31;20374;-79
2022/08/07 11:51:17;;;;;;;5.78;3.20;;;;;;;33.89;32.20;98328.72;4501451;31;20156;-78
2022/08/07 11:54:45;;;;;;;6.90;3.60;;;;;;;32.76;34.46;98320.47;4501688;31;20096;-78
2022/08/07 11:57:46;;;;;;;6.40;3.33;;;;;;;32.90;33.49;98315.19;4501301;31;20103;-78
2022/08/07 12:00:48;;;;;;;5.35;2.90;;;;;;;32.92;33.77;98311.28;4502375;31;20160;-78
2022/08/07 12:03:50;;;;;;;6.93;3.28;;;;;;;32.10;36.10;98313.94;4502725;31;20172;-78
2022/08/07 12:06:28;;;;;;;8.00;3.40;;;;;;;32.33;34.97;98311.88;4502723;31;20087;-78
2022/08/07 12:09:24;;;;;;;6.72;3.25;;;;;;;30.74;38.17;98299.81;4501735;31;20080;-78
2022/08/07 12:12:14;;;;;;;6.43;3.50;;;;;;;31.05;37.08;98307.53;4502332;31;20160;-78
2022/08/07 12:15:07;;;;;;;5.68;3.17;;;;;;;32.91;34.46;98312.31;4502417;31;20152;-78
2022/08/07 12:17:59;;;;;;;5.12;2.80;;;;;;;33.32;34.01;98306.03;4502667;31;20096;-78
2022/08/07 12:21:11;;;;;;;6.05;3.50;;;;;;;32.31;34.71;98303.22;4502457;31;20076;-78
2022/08/07 12:23:58;;;;;;;6.53;3.12;;;;;;;32.58;34.57;98309.50;4502524;31;20135;-78
2022/08/07 12:27:02;;;;;;;6.18;3.30;;;;;;;32.96;33.30;98298.34;4502117;31;20088;-78
2022/08/07 12:29:46;;;;;;;5.87;3.00;;;;;;;34.02;32.17;98303.78;4504014;31;20403;-78
2022/08/07 12:32:29;;;;;;;6.60;3.10;;;;;;;33.64;33.10;98299.06;4503045;31;20602;-78
2022/08/07 12:34:57;;;;;;;7.15;3.37;;;;;;;32.33;34.72;98300.38;4503074;31;20163;-78
2022/08/07 12:37:27;;;;;;;5.85;2.92;;;;;;;33.52;32.80;98304.22;4503342;31;20576;-80
2022/08/07 12:40:20;;;;;;;7.03;3.67;;;;;;;31.79;35.47;98296.50;4504028;31;20087;-80
2022/08/07 12:43:08;;;;;;;6.25;3.33;;;;;;;31.65;35.98;98300.06;4503308;31;20068;-80
2022/08/07 12:45:57;;;;;;;6.45;3.40;;;;;;;32.03;35.60;98292.56;4503922;31;20153;-80